2M8 weather

Charles W. Baker Airport
Millington, Tennessee, United States

Public forecast

Using degrees Fahrenheit for public forecast. Weather courtesy of forecast.io.

METAR (pilot weather report)

Closest report is Millington-Memphis Airport, 5.5 nm (10.3 km) NNE. Retrieved 2019/06/26 07:35 UTC (0 seconds ago):

KNQA 260735Z AUTO 22004KT 10SM CLR 23/20 A3010 RMK A01

TAF (pilot weather forecast)

Closest forecast is Memphis International Airport, 14.4 nm (26.6 km) S. Retrieved 2019/06/26 06:22 UTC (43 minutes ago):

TAF KMEM 260520Z 2606/2712 19008KT P6SM FEW040 BKN250 FM261400 22008KT P6SM SCT040 BKN200 FM270100 VRB03KT P6SM SCT040 BKN200